Time;durP1;ratioP1;P1;durP2;ratioP2;P2;SDS_P1;SDS_P2;PMS_P1;PMS_P2;Temp;Humidity;BMP_temperature;BMP_pressure;BME280_temperature;BME280_humidity;BME280_pressure;Samples;Min_cycle;Max_cycle;Signal;HPM_P1;HPM_P2
2023/10/26 00:01:05;;;;;;;5.43;2.50;;;16.70;99.90;;;;;;5071614;28;20207;-79
2023/10/26 00:03:37;;;;;;;6.05;2.67;;;16.80;99.90;;;;;;5077041;28;20559;-79
2023/10/26 00:06:09;;;;;;;9.13;2.50;;;16.90;99.90;;;;;;5075190;28;20195;-79
2023/10/26 00:08:52;;;;;;;6.32;2.53;;;17.00;99.90;;;;;;5087403;28;20307;-78
2023/10/26 00:11:30;;;;;;;5.57;2.20;;;17.00;99.90;;;;;;5061262;28;20192;-79
2023/10/26 00:14:06;;;;;;;4.95;2.05;;;17.00;99.90;;;;;;5065125;28;20202;-78
2023/10/26 00:16:42;;;;;;;7.28;2.45;;;16.90;99.90;;;;;;5068386;28;20199;-78
2023/10/26 00:19:16;;;;;;;5.75;2.20;;;17.00;99.90;;;;;;5057178;28;20341;-79
2023/10/26 00:21:55;;;;;;;5.68;1.77;;;17.00;99.90;;;;;;5070591;28;20203;-77
2023/10/26 00:24:26;;;;;;;10.68;2.05;;;17.00;99.90;;;;;;5074703;28;20587;-78
2023/10/26 00:27:03;;;;;;;6.00;2.00;;;17.00;99.90;;;;;;5070045;28;20212;-75
2023/10/26 00:29:35;;;;;;;15.55;2.60;;;17.10;99.90;;;;;;5074477;28;20198;-77
2023/10/26 00:32:13;;;;;;;5.65;1.92;;;16.90;99.90;;;;;;5064735;28;20648;-77
2023/10/26 00:34:45;;;;;;;5.15;1.50;;;16.80;99.90;;;;;;5080637;28;20202;-78
2023/10/26 00:37:21;;;;;;;4.90;1.80;;;16.80;99.90;;;;;;5076002;28;20224;-78
2023/10/26 00:39:53;;;;;;;3.63;1.60;;;16.80;99.90;;;;;;5083679;28;20216;-78
2023/10/26 00:42:34;;;;;;;8.85;1.70;;;16.80;99.90;;;;;;5082928;28;20212;-78
2023/10/26 00:45:22;;;;;;;4.13;1.48;;;16.90;99.90;;;;;;5056202;28;20216;-78
2023/10/26 00:48:06;;;;;;;7.60;1.50;;;17.00;99.90;;;;;;5076655;28;20203;-78
2023/10/26 00:50:37;;;;;;;6.10;1.80;;;17.20;99.90;;;;;;5089245;28;20636;-77
2023/10/26 00:53:15;;;;;;;8.90;1.60;;;17.30;99.90;;;;;;5073861;28;20206;-79
2023/10/26 00:55:56;;;;;;;10.38;1.98;;;17.30;99.90;;;;;;5061224;28;20203;-79
2023/10/26 00:58:34;;;;;;;4.65;1.70;;;17.30;99.90;;;;;;5071070;28;20192;-79
2023/10/26 01:01:09;;;;;;;8.18;1.80;;;17.30;99.90;;;;;;5060958;28;20659;-78
2023/10/26 01:03:42;;;;;;;7.25;1.70;;;17.50;99.90;;;;;;5056297;28;20230;-78
2023/10/26 01:06:15;;;;;;;6.53;1.55;;;17.50;99.90;;;;;;5072121;28;20184;-78
2023/10/26 01:08:48;;;;;;;9.75;1.83;;;17.40;99.90;;;;;;5066507;28;20196;-77
2023/10/26 01:11:22;;;;;;;10.63;2.53;;;17.40;99.90;;;;;;5069059;28;20702;-79
2023/10/26 01:13:57;;;;;;;5.35;1.73;;;17.40;99.90;;;;;;5071656;28;20639;-79
2023/10/26 01:16:33;;;;;;;5.78;1.85;;;17.40;99.90;;;;;;5072604;28;20279;-79
2023/10/26 01:19:14;;;;;;;4.68;2.40;;;17.40;99.90;;;;;;5074417;28;20365;-78
2023/10/26 01:22:15;;;;;;;6.75;1.80;;;17.40;99.90;;;;;;5055310;28;20714;-78
2023/10/26 01:24:55;;;;;;;7.80;1.63;;;17.30;99.90;;;;;;5074174;28;20207;-77
2023/10/26 01:27:39;;;;;;;4.78;1.40;;;17.20;99.90;;;;;;5078939;28;20206;-77
2023/10/26 01:30:19;;;;;;;6.57;1.63;;;17.20;99.90;;;;;;5082778;28;20203;-77
2023/10/26 01:33:03;;;;;;;6.03;2.15;;;17.10;99.90;;;;;;5083552;28;20219;-78
2023/10/26 01:35:41;;;;;;;7.35;1.50;;;17.10;99.90;;;;;;5068765;28;20196;-79
2023/10/26 01:38:20;;;;;;;5.05;1.60;;;17.00;99.90;;;;;;5086355;28;20214;-77
2023/10/26 01:40:55;;;;;;;7.10;1.50;;;17.00;99.90;;;;;;5079000;28;20254;-78
2023/10/26 01:43:30;;;;;;;5.00;1.33;;;17.00;99.90;;;;;;5103414;28;20247;-77
2023/10/26 01:46:04;;;;;;;4.55;1.35;;;17.00;99.90;;;;;;5064851;28;20215;-79
2023/10/26 01:48:39;;;;;;;10.15;1.48;;;17.00;99.90;;;;;;5083038;28;20202;-79
2023/10/26 01:54:06;;;;;;;10.35;1.45;;;17.10;99.90;;;;;;5069145;28;20197;-77
2023/10/26 01:56:38;;;;;;;6.00;1.45;;;17.30;99.90;;;;;;5075046;28;20219;-77
2023/10/26 01:59:12;;;;;;;5.70;1.65;;;17.30;99.90;;;;;;5063433;28;20641;-78
2023/10/26 02:01:44;;;;;;;6.15;1.50;;;17.20;99.90;;;;;;5076316;28;20196;-80
2023/10/26 02:04:18;;;;;;;6.25;1.75;;;17.20;99.90;;;;;;5089790;28;20218;-77
2023/10/26 02:06:50;;;;;;;7.88;1.75;;;17.20;99.90;;;;;;5078363;28;20207;-77
2023/10/26 02:09:26;;;;;;;4.28;1.35;;;17.30;99.90;;;;;;5060646;28;20196;-78
2023/10/26 02:12:06;;;;;;;2.38;1.10;;;17.30;99.90;;;;;;5066374;28;20226;-78
2023/10/26 02:14:42;;;;;;;6.60;1.80;;;17.30;99.90;;;;;;5073022;28;20203;-78
2023/10/26 02:17:36;;;;;;;5.75;2.60;;;17.30;99.90;;;;;;5063702;28;20265;-79
2023/10/26 02:20:09;;;;;;;4.13;1.85;;;17.20;99.90;;;;;;5070866;28;20239;-78
2023/10/26 02:22:41;;;;;;;5.53;1.60;;;17.10;99.90;;;;;;5063872;28;20215;-80
2023/10/26 02:28:15;;;;;;;5.07;1.48;;;17.30;99.90;;;;;;5066030;28;20192;-79
2023/10/26 02:31:10;;;;;;;5.15;1.45;;;17.50;99.90;;;;;;5062511;28;20233;-78
2023/10/26 02:33:54;;;;;;;5.15;1.40;;;17.40;99.90;;;;;;5070233;28;20188;-80
2023/10/26 02:36:26;;;;;;;6.47;1.35;;;17.50;99.90;;;;;;5064086;28;20187;-79
2023/10/26 02:39:03;;;;;;;6.32;1.55;;;17.50;99.90;;;;;;5083413;28;20200;-78
2023/10/26 02:41:39;;;;;;;4.40;1.05;;;17.50;99.90;;;;;;5074719;28;20562;-79
2023/10/26 02:47:03;;;;;;;5.22;1.30;;;17.90;99.90;;;;;;5078062;28;20223;-77
2023/10/26 02:49:38;;;;;;;6.22;1.48;;;18.00;99.90;;;;;;5079077;28;20269;-80
2023/10/26 02:52:12;;;;;;;6.82;1.20;;;18.00;99.90;;;;;;5068761;28;20218;-79
2023/10/26 02:54:49;;;;;;;3.90;1.25;;;17.70;99.90;;;;;;5078454;28;20294;-79
2023/10/26 02:57:43;;;;;;;2.63;0.80;;;17.70;99.90;;;;;;5066621;28;20711;-79
2023/10/26 03:00:19;;;;;;;5.47;0.85;;;17.80;99.90;;;;;;5074443;28;20632;-79
2023/10/26 03:02:54;;;;;;;5.75;1.55;;;17.90;99.90;;;;;;5075728;28;20282;-79
2023/10/26 03:05:38;;;;;;;6.28;1.50;;;18.00;99.90;;;;;;5094271;28;20294;-78
2023/10/26 03:08:36;;;;;;;5.10;1.25;;;18.20;99.90;;;;;;5072262;28;20195;-78
2023/10/26 03:11:23;;;;;;;5.82;1.25;;;18.30;99.90;;;;;;5080593;28;20321;-78
2023/10/26 03:13:56;;;;;;;6.95;1.48;;;18.20;99.90;;;;;;5075565;28;20196;-78
2023/10/26 03:16:29;;;;;;;5.05;1.10;;;18.30;99.90;;;;;;5087173;28;20558;-78
2023/10/26 03:19:01;;;;;;;6.30;1.20;;;18.20;99.90;;;;;;5076099;28;20228;-78
2023/10/26 03:21:33;;;;;;;6.07;1.30;;;18.10;99.90;;;;;;5076456;28;20195;-78
2023/10/26 03:24:10;;;;;;;3.05;0.90;;;18.00;99.90;;;;;;5076656;28;20192;-77
2023/10/26 03:26:44;;;;;;;4.65;1.10;;;18.00;99.90;;;;;;5075250;28;20204;-79
2023/10/26 03:29:25;;;;;;;4.88;1.25;;;18.00;99.90;;;;;;5073092;28;20228;-78
2023/10/26 03:32:44;;;;;;;4.88;1.27;;;18.10;99.90;;;;;;5077232;28;20558;-77
2023/10/26 03:35:27;;;;;;;8.52;1.38;;;17.90;99.90;;;;;;5090359;28;20413;-78
2023/10/26 03:38:01;;;;;;;6.13;1.42;;;17.80;99.90;;;;;;5088897;28;20225;-76
2023/10/26 03:40:37;;;;;;;8.60;1.40;;;17.80;99.90;;;;;;5072294;28;20231;-78
2023/10/26 03:43:09;;;;;;;6.72;1.70;;;17.70;99.90;;;;;;5090237;28;20190;-77
2023/10/26 03:45:41;;;;;;;7.43;1.27;;;17.70;99.90;;;;;;5071109;28;20204;-79
2023/10/26 03:48:15;;;;;;;7.82;1.60;;;17.60;99.90;;;;;;5074444;28;20210;-78
2023/10/26 03:50:47;;;;;;;7.22;1.30;;;17.70;99.90;;;;;;5093214;28;20661;-77
2023/10/26 03:53:20;;;;;;;5.10;1.33;;;17.60;99.90;;;;;;5100257;28;20180;-78
2023/10/26 03:56:03;;;;;;;9.02;1.40;;;17.40;99.90;;;;;;5102445;28;20184;-78
2023/10/26 03:58:34;;;;;;;5.90;1.25;;;17.40;99.90;;;;;;5076646;28;20280;-78
2023/10/26 04:01:23;;;;;;;4.03;1.30;;;17.40;99.90;;;;;;5078553;28;20224;-78
2023/10/26 04:03:55;;;;;;;6.50;1.48;;;17.40;99.90;;;;;;5078048;28;20200;-78
2023/10/26 04:06:28;;;;;;;7.18;1.20;;;17.40;99.90;;;;;;5074165;28;20194;-80
2023/10/26 04:09:03;;;;;;;6.90;1.38;;;17.60;99.90;;;;;;5076629;28;20249;-79
2023/10/26 04:11:35;;;;;;;3.63;1.08;;;17.50;99.90;;;;;;5065641;28;20283;-78
2023/10/26 04:14:10;;;;;;;4.45;1.13;;;17.50;99.90;;;;;;5065335;28;20267;-78
2023/10/26 04:17:07;;;;;;;5.70;1.17;;;17.50;99.90;;;;;;5058514;28;20205;-78
2023/10/26 04:22:40;;;;;;;7.00;1.30;;;17.70;99.90;;;;;;5070644;28;20202;-79
2023/10/26 04:27:59;;;;;;;10.52;1.95;;;17.80;99.90;;;;;;5088466;28;20213;-78
2023/10/26 04:30:53;;;;;;;8.52;1.42;;;17.80;99.90;;;;;;5092583;28;20206;-78
2023/10/26 04:34:15;;;;;;;8.93;1.75;;;17.90;99.90;;;;;;5076784;28;20235;-78
2023/10/26 04:36:57;;;;;;;8.93;2.00;;;17.90;99.90;;;;;;5075471;28;20222;-79
2023/10/26 04:39:35;;;;;;;11.02;1.67;;;17.90;99.90;;;;;;5069962;28;20539;-79
2023/10/26 04:42:09;;;;;;;10.30;2.05;;;17.80;99.90;;;;;;5082000;28;20224;-78
2023/10/26 04:44:48;;;;;;;7.53;1.50;;;17.90;99.90;;;;;;5059742;28;20203;-79
2023/10/26 04:47:23;;;;;;;7.82;1.60;;;17.90;99.90;;;;;;5068578;28;20200;-79
2023/10/26 04:50:16;;;;;;;9.25;1.60;;;17.90;99.90;;;;;;5078065;28;20309;-79
2023/10/26 04:52:52;;;;;;;8.70;1.50;;;17.70;99.90;;;;;;5071160;28;20223;-79
2023/10/26 04:55:30;;;;;;;7.22;1.33;;;17.80;99.90;;;;;;5087833;28;20209;-78
2023/10/26 05:04:11;;;;;;;7.78;1.60;;;17.80;99.90;;;;;;5068645;28;20203;-79
2023/10/26 05:07:05;;;;;;;6.20;1.25;;;18.00;99.90;;;;;;5079309;28;20818;-80
2023/10/26 05:09:37;;;;;;;4.40;1.10;;;18.00;99.90;;;;;;5062839;28;20219;-80
2023/10/26 05:12:15;;;;;;;5.05;1.30;;;18.00;99.90;;;;;;5061863;28;20230;-80
2023/10/26 05:14:53;;;;;;;7.00;1.63;;;17.90;99.90;;;;;;5055466;28;20266;-79
2023/10/26 05:17:48;;;;;;;8.10;1.35;;;17.90;99.90;;;;;;5068446;28;21636;-80
2023/10/26 05:20:39;;;;;;;4.95;1.33;;;17.90;99.90;;;;;;5060252;28;20228;-80
2023/10/26 05:23:24;;;;;;;3.10;1.30;;;17.80;99.90;;;;;;5068756;28;20211;-80
2023/10/26 05:26:01;;;;;;;6.85;1.55;;;17.80;99.90;;;;;;5064386;28;20279;-80
2023/10/26 05:28:34;;;;;;;5.85;1.33;;;17.70;99.90;;;;;;5064118;28;20196;-79
2023/10/26 05:31:09;;;;;;;8.30;1.95;;;17.60;99.90;;;;;;5069327;28;20196;-78
2023/10/26 05:33:55;;;;;;;5.28;1.27;;;17.70;99.90;;;;;;5067413;28;22071;-78
2023/10/26 05:36:30;;;;;;;7.95;1.70;;;17.60;99.90;;;;;;5058155;28;20716;-79
2023/10/26 05:39:05;;;;;;;7.65;1.88;;;17.60;99.90;;;;;;5064572;28;20203;-79
2023/10/26 05:41:37;;;;;;;5.13;1.35;;;17.50;99.90;;;;;;5087615;28;20198;-79
2023/10/26 05:44:10;;;;;;;7.68;1.77;;;17.50;99.90;;;;;;5081334;28;20565;-79
2023/10/26 05:46:45;;;;;;;5.40;1.38;;;17.50;99.90;;;;;;5063868;28;20568;-79
2023/10/26 05:49:24;;;;;;;7.85;1.48;;;17.40;99.90;;;;;;5066988;28;20204;-79
2023/10/26 05:52:00;;;;;;;6.38;1.33;;;17.40;99.90;;;;;;5063958;28;20772;-80
2023/10/26 05:54:36;;;;;;;9.23;1.45;;;17.40;99.90;;;;;;5076076;28;20290;-80
2023/10/26 05:57:09;;;;;;;8.18;1.67;;;17.50;99.90;;;;;;5064983;28;20200;-78
2023/10/26 05:59:43;;;;;;;9.43;1.55;;;17.40;99.90;;;;;;5064529;28;20200;-80
2023/10/26 06:02:15;;;;;;;7.60;1.80;;;17.40;99.90;;;;;;5062008;28;20242;-79
2023/10/26 06:04:51;;;;;;;7.90;1.50;;;17.40;99.90;;;;;;5071300;28;21005;-79
2023/10/26 06:07:23;;;;;;;8.85;1.85;;;17.40;99.90;;;;;;5063695;28;20203;-79
2023/10/26 06:09:58;;;;;;;6.70;1.83;;;17.50;99.90;;;;;;5071619;28;20279;-79
2023/10/26 06:12:34;;;;;;;7.15;1.85;;;17.40;99.90;;;;;;5058053;28;20566;-79
2023/10/26 06:15:06;;;;;;;7.60;1.92;;;17.50;99.90;;;;;;5066716;28;20192;-80
2023/10/26 06:17:37;;;;;;;7.57;1.80;;;17.40;99.90;;;;;;5070152;28;20318;-81
2023/10/26 06:20:09;;;;;;;5.88;2.20;;;17.30;99.90;;;;;;5070643;28;20215;-80
2023/10/26 06:26:07;;;;;;;5.53;1.42;;;17.40;99.90;;;;;;5065857;28;20220;-79
2023/10/26 06:28:38;;;;;;;7.45;1.38;;;17.40;99.90;;;;;;5061587;28;20585;-80
2023/10/26 06:31:15;;;;;;;5.60;1.38;;;17.40;99.90;;;;;;5060630;28;20239;-80
2023/10/26 06:33:46;;;;;;;6.63;1.63;;;17.40;99.90;;;;;;5064250;28;20746;-81
2023/10/26 06:36:26;;;;;;;7.25;1.88;;;17.40;99.90;;;;;;5065567;28;20589;-81
2023/10/26 06:39:03;;;;;;;8.10;1.52;;;17.30;99.90;;;;;;5066779;28;20204;-80
2023/10/26 06:41:36;;;;;;;5.88;1.70;;;17.20;99.90;;;;;;5072208;28;20235;-81
2023/10/26 06:44:19;;;;;;;8.23;1.70;;;17.20;99.90;;;;;;5070981;28;20708;-80
2023/10/26 06:46:51;;;;;;;6.47;1.73;;;17.20;99.90;;;;;;5068128;28;20200;-80
2023/10/26 06:49:24;;;;;;;9.43;2.20;;;17.10;99.90;;;;;;5069954;28;20206;-80
2023/10/26 06:51:55;;;;;;;9.00;1.90;;;17.00;99.90;;;;;;5067477;28;20210;-81
2023/10/26 06:57:13;;;;;;;11.25;2.03;;;16.80;99.90;;;;;;5069984;28;20199;-81
2023/10/26 06:59:44;;;;;;;7.97;2.40;;;16.70;99.90;;;;;;5065172;28;20202;-80
2023/10/26 07:02:15;;;;;;;10.30;2.65;;;16.80;99.90;;;;;;5066047;28;20223;-81
2023/10/26 07:04:50;;;;;;;10.75;2.80;;;16.80;99.90;;;;;;5072574;28;20192;-81
2023/10/26 07:07:24;;;;;;;8.18;2.83;;;16.80;99.90;;;;;;5093294;28;20206;-80
2023/10/26 07:10:04;;;;;;;8.63;2.63;;;16.70;99.90;;;;;;5090858;28;20188;-81
2023/10/26 07:12:45;;;;;;;7.85;3.28;;;16.70;99.90;;;;;;5072014;28;20212;-80
2023/10/26 07:15:22;;;;;;;13.90;3.17;;;16.70;99.90;;;;;;5072369;28;20253;-81
2023/10/26 07:17:55;;;;;;;9.05;3.00;;;16.70;99.90;;;;;;5069100;28;20265;-81
2023/10/26 07:20:31;;;;;;;11.45;3.65;;;16.70;99.90;;;;;;5069303;28;20212;-81
2023/10/26 07:23:06;;;;;;;9.82;2.67;;;16.60;99.90;;;;;;5071038;28;20246;-81
2023/10/26 07:28:46;;;;;;;11.48;2.75;;;16.70;99.90;;;;;;5068890;28;20203;-81
2023/10/26 07:31:27;;;;;;;9.90;2.15;;;16.80;99.90;;;;;;5065058;28;20225;-83
2023/10/26 07:34:00;;;;;;;8.93;2.65;;;16.60;99.90;;;;;;5070428;28;20215;-82
2023/10/26 07:36:32;;;;;;;8.48;2.60;;;16.50;99.90;;;;;;5069275;28;20207;-82
2023/10/26 07:39:05;;;;;;;11.30;3.20;;;16.50;99.90;;;;;;5068297;28;20196;-81
2023/10/26 07:41:49;;;;;;;12.05;2.70;;;16.60;99.90;;;;;;5067163;28;20219;-81
2023/10/26 07:44:26;;;;;;;13.13;2.60;;;16.50;99.90;;;;;;5065792;28;20259;-82
2023/10/26 07:46:57;;;;;;;9.65;2.80;;;16.50;99.90;;;;;;5070708;28;20550;-81
2023/10/26 07:49:31;;;;;;;11.40;3.35;;;16.40;99.90;;;;;;5070749;28;20211;-82
2023/10/26 07:52:04;;;;;;;16.15;3.67;;;16.20;99.90;;;;;;5072095;28;20754;-82
2023/10/26 07:54:36;;;;;;;14.02;4.28;;;16.10;99.90;;;;;;5074872;28;20625;-83
2023/10/26 07:57:10;;;;;;;13.63;3.13;;;16.10;99.90;;;;;;5072747;28;20219;-83
2023/10/26 07:59:44;;;;;;;13.88;2.58;;;16.10;99.90;;;;;;5080604;28;20208;-82
2023/10/26 08:02:16;;;;;;;10.27;2.33;;;16.10;99.90;;;;;;5082405;28;20229;-83
2023/10/26 08:08:01;;;;;;;12.02;2.58;;;16.00;99.90;;;;;;5094272;28;20214;-84
2023/10/26 08:13:21;;;;;;;12.75;2.88;;;15.80;99.90;;;;;;5071614;28;20202;-83
2023/10/26 08:16:10;;;;;;;12.93;2.70;;;15.80;99.90;;;;;;5068769;28;20207;-83
2023/10/26 08:18:42;;;;;;;9.57;2.83;;;15.80;99.90;;;;;;5067843;28;20232;-83
2023/10/26 08:24:00;;;;;;;14.15;3.20;;;15.90;99.90;;;;;;5067231;28;20196;-82
2023/10/26 08:26:32;;;;;;;11.20;3.00;;;15.90;99.90;;;;;;5068321;28;20286;-81
2023/10/26 08:29:06;;;;;;;13.85;3.70;;;15.90;99.90;;;;;;5067858;28;20249;-84
2023/10/26 08:31:45;;;;;;;7.13;2.30;;;15.90;99.90;;;;;;5068844;28;20204;-83
2023/10/26 08:34:27;;;;;;;10.00;2.72;;;15.90;99.90;;;;;;5069226;28;20253;-81
2023/10/26 08:37:04;;;;;;;9.50;2.45;;;15.90;99.90;;;;;;5064854;28;20219;-81
2023/10/26 08:39:43;;;;;;;7.40;2.20;;;15.90;99.90;;;;;;5067282;28;20290;-82
2023/10/26 08:42:17;;;;;;;12.35;2.60;;;15.90;99.90;;;;;;5066323;28;20231;-82
2023/10/26 08:47:51;;;;;;;8.73;2.90;;;15.80;99.90;;;;;;5070477;28;20301;-83
2023/10/26 08:50:24;;;;;;;10.10;3.20;;;15.80;99.90;;;;;;5064567;28;20564;-82
2023/10/26 08:52:58;;;;;;;10.25;3.28;;;15.90;99.90;;;;;;5066575;28;20214;-82
2023/10/26 08:55:33;;;;;;;8.57;2.95;;;15.90;99.90;;;;;;5070276;28;20227;-83
2023/10/26 08:58:07;;;;;;;11.48;3.05;;;16.00;99.90;;;;;;5070062;28;20263;-82
2023/10/26 09:00:41;;;;;;;9.10;3.60;;;16.00;99.90;;;;;;5071743;28;20306;-82
2023/10/26 09:03:22;;;;;;;12.95;3.00;;;16.00;99.90;;;;;;5070607;28;20231;-83
2023/10/26 09:05:56;;;;;;;10.30;2.33;;;16.10;99.90;;;;;;5077542;28;20207;-81
2023/10/26 09:11:46;;;;;;;8.90;1.92;;;16.10;99.90;;;;;;5085606;28;20194;-82
2023/10/26 09:14:24;;;;;;;5.78;1.55;;;16.10;99.90;;;;;;5070229;28;20195;-81
2023/10/26 09:16:55;;;;;;;8.25;1.70;;;16.10;99.90;;;;;;5070864;28;20623;-81
2023/10/26 09:19:45;;;;;;;8.27;1.70;;;16.10;99.90;;;;;;5074810;28;20263;-81
2023/10/26 09:22:42;;;;;;;8.70;1.90;;;16.20;99.90;;;;;;5073485;28;20212;-82
2023/10/26 09:25:32;;;;;;;9.90;2.20;;;16.30;99.90;;;;;;5071700;28;20237;-82
2023/10/26 09:31:25;;;;;;;10.82;1.90;;;16.40;99.90;;;;;;5074253;28;20676;-81
2023/10/26 09:34:27;;;;;;;9.52;1.80;;;16.40;99.90;;;;;;5069647;28;20215;-82
2023/10/26 09:37:28;;;;;;;7.75;1.65;;;16.40;99.90;;;;;;5072803;28;20213;-83
2023/10/26 09:40:23;;;;;;;12.88;2.58;;;16.50;99.90;;;;;;5071414;28;20192;-80
2023/10/26 09:43:32;;;;;;;9.43;2.40;;;16.60;99.90;;;;;;5074757;28;20234;-80
2023/10/26 09:49:19;;;;;;;12.85;2.67;;;16.60;99.90;;;;;;5076854;28;20287;-80
2023/10/26 09:58:15;;;;;;;9.55;2.10;;;16.60;99.90;;;;;;5072475;28;20434;-83
2023/10/26 10:00:56;;;;;;;9.75;1.75;;;16.70;99.90;;;;;;5077581;28;20520;-82
2023/10/26 10:03:45;;;;;;;9.07;1.90;;;16.70;99.90;;;;;;5082940;28;20208;-82
2023/10/26 10:06:58;;;;;;;13.25;2.33;;;16.60;99.90;;;;;;5086727;28;20234;-83
2023/10/26 10:12:44;;;;;;;11.80;2.00;;;16.70;99.90;;;;;;5076075;28;20223;-82
2023/10/26 10:15:23;;;;;;;10.60;2.00;;;16.80;99.90;;;;;;5071318;28;20590;-82
2023/10/26 10:18:34;;;;;;;13.10;2.22;;;16.70;99.90;;;;;;5076753;28;20207;-81
2023/10/26 10:25:23;;;;;;;10.60;2.00;;;16.70;99.90;;;;;;5070748;28;20200;-82
2023/10/26 10:28:41;;;;;;;6.30;1.67;;;16.70;99.90;;;;;;5072426;28;20200;-82
2023/10/26 10:32:11;;;;;;;10.80;1.70;;;16.60;99.90;;;;;;5070859;28;20286;-80
2023/10/26 10:34:49;;;;;;;12.57;2.03;;;16.70;99.90;;;;;;5071511;28;20192;-84
2023/10/26 10:37:28;;;;;;;6.22;1.45;;;16.70;99.90;;;;;;5069301;28;20276;-82
2023/10/26 10:40:34;;;;;;;7.13;1.92;;;16.70;99.90;;;;;;5072988;28;20230;-81
2023/10/26 10:43:33;;;;;;;6.95;1.67;;;16.80;99.90;;;;;;5067780;28;20232;-82
2023/10/26 10:46:26;;;;;;;11.95;1.90;;;16.80;99.90;;;;;;5067151;28;20277;-82
2023/10/26 10:49:11;;;;;;;9.43;1.60;;;16.80;99.90;;;;;;5068351;28;20238;-81
2023/10/26 10:51:42;;;;;;;9.50;1.50;;;16.90;99.90;;;;;;5061605;28;20674;-82
2023/10/26 10:54:19;;;;;;;11.35;1.95;;;16.80;99.90;;;;;;5072697;28;20537;-83
2023/10/26 10:56:59;;;;;;;11.20;1.70;;;16.90;99.90;;;;;;5067752;28;20204;-82
2023/10/26 10:59:38;;;;;;;12.07;1.50;;;16.80;99.90;;;;;;5074329;28;20674;-82
2023/10/26 11:02:15;;;;;;;8.73;1.42;;;16.90;99.90;;;;;;5064816;28;20228;-83
2023/10/26 11:05:17;;;;;;;7.60;2.00;;;17.00;99.90;;;;;;5060452;28;20258;-82
2023/10/26 11:07:58;;;;;;;8.93;1.67;;;17.00;99.90;;;;;;5081879;28;20187;-84
2023/10/26 11:10:33;;;;;;;10.13;2.00;;;17.00;99.90;;;;;;5081268;28;20219;-83
2023/10/26 11:13:17;;;;;;;10.30;1.83;;;16.90;99.90;;;;;;5077087;28;20243;-85
2023/10/26 11:15:57;;;;;;;8.93;1.48;;;16.90;99.90;;;;;;5053646;28;20209;-84
2023/10/26 11:18:38;;;;;;;11.27;1.60;;;16.80;99.90;;;;;;5073201;28;20223;-83
2023/10/26 11:21:24;;;;;;;10.77;1.75;;;16.90;99.90;;;;;;5057082;28;20200;-84
2023/10/26 11:24:06;;;;;;;9.63;1.52;;;16.90;99.90;;;;;;5056507;28;20208;-84
2023/10/26 11:26:38;;;;;;;4.47;1.50;;;16.90;99.90;;;;;;5054650;28;20287;-82
2023/10/26 11:29:19;;;;;;;5.85;1.17;;;16.80;99.90;;;;;;5072897;28;20212;-84
2023/10/26 11:31:49;;;;;;;5.28;1.42;;;16.90;99.90;;;;;;5070296;28;20279;-83
2023/10/26 11:34:25;;;;;;;5.35;1.50;;;17.00;99.90;;;;;;5057390;28;20247;-84
2023/10/26 11:37:02;;;;;;;6.00;1.63;;;17.00;99.90;;;;;;5059720;28;20216;-84
2023/10/26 11:39:33;;;;;;;4.30;1.10;;;17.00;99.90;;;;;;5075284;28;20196;-84
2023/10/26 11:42:08;;;;;;;6.07;1.50;;;17.00;99.90;;;;;;5058977;28;20217;-84
2023/10/26 11:44:40;;;;;;;6.38;1.35;;;17.00;99.90;;;;;;5058336;28;20279;-85
2023/10/26 11:47:32;;;;;;;6.25;1.33;;;17.00;99.90;;;;;;5075127;28;20192;-84
2023/10/26 11:54:15;;;;;;;10.68;1.52;;;17.10;99.90;;;;;;5066528;28;20184;-83
2023/10/26 11:57:03;;;;;;;7.43;1.40;;;17.10;99.90;;;;;;5073184;28;20192;-84
2023/10/26 11:59:53;;;;;;;8.25;1.70;;;17.00;99.90;;;;;;5054690;28;20220;-84
2023/10/26 12:02:41;;;;;;;7.50;1.60;;;17.00;99.90;;;;;;5060181;28;20220;-82
2023/10/26 12:05:18;;;;;;;6.00;1.52;;;16.90;99.90;;;;;;5057567;28;20664;-81
2023/10/26 12:07:54;;;;;;;12.20;2.17;;;16.90;99.90;;;;;;5063377;28;20287;-81
2023/10/26 12:10:43;;;;;;;10.13;1.63;;;16.90;99.90;;;;;;5071842;28;20200;-83
2023/10/26 12:13:18;;;;;;;8.95;1.63;;;16.80;99.90;;;;;;5082656;28;20226;-81
2023/10/26 12:15:53;;;;;;;9.00;1.58;;;16.80;99.90;;;;;;5083518;28;20723;-80
2023/10/26 12:18:27;;;;;;;5.07;1.10;;;16.80;99.90;;;;;;5072585;28;20191;-81
2023/10/26 12:21:10;;;;;;;5.05;1.10;;;16.80;99.90;;;;;;5074757;28;20192;-82
2023/10/26 12:23:52;;;;;;;5.38;1.20;;;16.70;99.90;;;;;;5058253;28;20225;-82
2023/10/26 12:26:39;;;;;;;4.60;1.13;;;16.70;99.90;;;;;;5060327;28;20311;-81
2023/10/26 12:29:38;;;;;;;6.95;1.00;;;16.70;99.90;;;;;;5083366;28;20231;-82
2023/10/26 12:32:48;;;;;;;7.38;1.30;;;16.70;99.90;;;;;;5082594;28;20225;-81
2023/10/26 12:39:02;;;;;;;9.07;1.63;;;16.70;99.90;;;;;;5062910;28;20274;-81
2023/10/26 12:44:52;;;;;;;8.23;1.50;;;16.90;99.90;;;;;;5155345;22;20251;-82
2023/10/26 12:47:54;;;;;;;8.07;1.77;;;16.80;99.90;;;;;;5055210;28;20224;-81
2023/10/26 12:50:35;;;;;;;9.52;1.77;;;16.80;99.90;;;;;;5072043;28;20571;-81
2023/10/26 12:53:36;;;;;;;8.93;1.63;;;16.80;99.90;;;;;;5060333;28;20210;-81
2023/10/26 12:56:40;;;;;;;6.95;1.60;;;16.80;99.90;;;;;;5047405;28;20209;-81
2023/10/26 13:33:54;;;;;;;4.75;1.00;;;16.80;99.90;;;;;;5068366;28;20256;-80
2023/10/26 13:36:44;;;;;;;4.32;1.08;;;16.90;99.90;;;;;;5068474;28;20188;-80
2023/10/26 13:39:18;;;;;;;2.88;1.13;;;16.80;99.90;;;;;;5077827;28;20199;-81
2023/10/26 13:42:11;;;;;;;3.45;1.00;;;16.90;99.90;;;;;;5065118;28;20744;-82
2023/10/26 13:44:42;;;;;;;3.38;0.85;;;16.80;99.90;;;;;;5066027;28;20202;-81
2023/10/26 13:47:44;;;;;;;3.92;0.88;;;16.80;99.90;;;;;;5072802;28;20265;-80
2023/10/26 13:50:24;;;;;;;6.22;0.93;;;16.90;99.90;;;;;;5067261;28;20210;-80
2023/10/26 13:53:07;;;;;;;4.18;0.98;;;16.90;99.90;;;;;;5059541;28;20181;-81
2023/10/26 13:56:07;;;;;;;3.78;0.90;;;17.00;99.90;;;;;;5071604;28;20207;-81
2023/10/26 13:58:39;;;;;;;5.15;1.13;;;17.00;99.90;;;;;;5062309;28;20204;-80
2023/10/26 14:01:14;;;;;;;2.58;0.90;;;17.00;99.90;;;;;;5078594;28;20263;-80
2023/10/26 14:06:40;;;;;;;3.13;0.90;;;17.00;99.90;;;;;;5193260;23;20223;-82
2023/10/26 14:09:13;;;;;;;2.28;0.90;;;17.00;99.90;;;;;;5084140;28;20215;-81
2023/10/26 14:11:44;;;;;;;3.30;0.93;;;17.00;99.90;;;;;;5082595;28;20206;-81
2023/10/26 14:14:22;;;;;;;4.00;1.02;;;17.00;99.90;;;;;;5083712;28;20221;-82
2023/10/26 14:17:09;;;;;;;4.65;1.17;;;17.00;99.90;;;;;;5073085;28;20208;-81
2023/10/26 14:23:08;;;;;;;5.97;1.00;;;17.00;99.90;;;;;;5021538;28;20267;-81
2023/10/26 14:25:46;;;;;;;6.20;1.33;;;16.90;99.90;;;;;;5062626;28;20191;-81
2023/10/26 14:28:28;;;;;;;4.35;1.25;;;17.00;99.90;;;;;;5063789;28;20216;-81
2023/10/26 14:31:03;;;;;;;5.75;1.13;;;16.90;99.90;;;;;;5075376;28;20227;-81
2023/10/26 14:33:34;;;;;;;4.93;1.10;;;16.90;99.90;;;;;;5071229;28;20629;-81
2023/10/26 14:36:33;;;;;;;3.70;1.02;;;16.90;99.90;;;;;;5054751;28;20200;-81
2023/10/26 14:39:26;;;;;;;3.20;1.10;;;16.90;99.90;;;;;;5050448;28;20668;-81
2023/10/26 14:42:20;;;;;;;5.30;1.10;;;16.80;99.90;;;;;;5045967;28;20208;-81
2023/10/26 14:45:13;;;;;;;7.65;1.40;;;16.80;99.90;;;;;;5042331;28;20205;-80
2023/10/26 14:50:36;;;;;;;5.15;1.20;;;16.80;99.90;;;;;;5052877;28;20279;-82
2023/10/26 14:53:14;;;;;;;3.95;1.15;;;16.80;99.90;;;;;;5041986;28;20256;-82
2023/10/26 14:56:06;;;;;;;5.53;1.15;;;16.80;99.90;;;;;;5058078;28;20193;-82
2023/10/26 14:58:50;;;;;;;4.10;0.85;;;16.80;99.90;;;;;;5056223;28;20197;-82
2023/10/26 15:01:34;;;;;;;8.27;1.42;;;16.80;99.90;;;;;;5045152;28;20200;-81
2023/10/26 15:04:12;;;;;;;6.72;1.73;;;16.70;99.90;;;;;;5044641;28;20260;-81
2023/10/26 15:06:43;;;;;;;8.82;1.58;;;16.80;99.90;;;;;;5055773;28;20221;-82
2023/10/26 15:09:16;;;;;;;10.38;1.50;;;16.80;99.90;;;;;;5050576;28;20212;-81
2023/10/26 15:11:57;;;;;;;5.80;1.42;;;16.80;99.90;;;;;;5064467;28;20267;-81
2023/10/26 15:14:46;;;;;;;6.28;1.60;;;16.60;99.90;;;;;;5071065;28;20211;-82
2023/10/26 15:23:39;;;;;;;4.20;1.05;;;16.40;99.90;;;;;;5045014;28;20215;-82
2023/10/26 15:26:15;;;;;;;7.18;1.38;;;16.40;99.90;;;;;;5055560;28;20189;-81
2023/10/26 15:29:04;;;;;;;5.20;1.17;;;16.40;99.90;;;;;;5057853;28;20200;-81
2023/10/26 15:31:35;;;;;;;5.32;1.30;;;16.40;99.90;;;;;;5045390;28;20338;-80
2023/10/26 15:37:18;;;;;;;6.72;1.40;;;16.50;99.90;;;;;;5035610;28;20288;-81
2023/10/26 15:39:53;;;;;;;7.05;1.27;;;16.50;99.90;;;;;;5049425;28;20722;-80
2023/10/26 15:42:47;;;;;;;6.95;1.50;;;16.50;99.90;;;;;;5048038;28;20278;-81
2023/10/26 15:45:55;;;;;;;6.05;1.30;;;16.50;99.90;;;;;;5038552;28;20259;-81
2023/10/26 15:48:55;;;;;;;6.90;1.60;;;16.40;99.90;;;;;;5058829;28;20197;-82
2023/10/26 15:51:43;;;;;;;8.15;1.48;;;16.50;99.90;;;;;;5064154;28;20264;-82
2023/10/26 15:54:56;;;;;;;5.20;1.25;;;16.40;99.90;;;;;;5066289;28;20231;-81
2023/10/26 15:57:36;;;;;;;7.78;1.50;;;16.40;99.90;;;;;;5058912;28;20223;-81
2023/10/26 16:00:09;;;;;;;5.90;1.33;;;16.40;99.90;;;;;;5055694;28;20192;-81